Fecha, hora, temperatura, viento dirección y velocidad, humedad y presión.

  • 19-03-2019 23:00:00 | 9.20°C | Sur |6.00 km/h | 89.00% | 1025.90 hPa
  • 19-03-2019 22:00:00 | 9.40°C | Sudeste |9.00 km/h | 87.00% | 1025.50 hPa
  • 19-03-2019 21:00:00 | 9.90°C | Este |10.00 km/h | 85.00% | 1025.00 hPa
  • 19-03-2019 20:00:00 | 11.20°C | Norte |10.00 km/h | 79.00% | 1024.50 hPa
  • 19-03-2019 19:00:00 | 11.30°C | Norte |8.00 km/h | 79.00% | 1024.30 hPa
  • 19-03-2019 18:00:00 | 11.50°C | Nordeste |6.00 km/h | 80.00% | 1023.70 hPa
  • 19-03-2019 17:00:00 | 11.80°C | Norte |11.00 km/h | 80.00% | 1023.60 hPa
  • 19-03-2019 16:00:00 | 11.70°C | Norte |8.00 km/h | 82.00% | 1023.70 hPa
  • 19-03-2019 15:00:00 | 10.60°C | Norte |22.00 km/h | 81.00% | 1023.50 hPa
  • 19-03-2019 14:00:00 | 12.40°C | Norte |12.00 km/h | 83.00% | 1023.60 hPa
  • 19-03-2019 13:00:00 | 11.20°C | Norte |10.00 km/h | 87.00% | 1023.60 hPa
  • 19-03-2019 12:00:00 | 10.90°C | Norte |15.00 km/h | 85.00% | 1023.60 hPa
  • 19-03-2019 11:00:00 | 11.30°C | Nordeste |9.00 km/h | 87.00% | 1023.40 hPa
  • 19-03-2019 10:00:00 | 10.50°C | Nordeste |28.00 km/h | 85.00% | 1022.80 hPa
  • 19-03-2019 09:00:00 | 10.70°C | Norte |22.00 km/h | 87.00% | 1022.40 hPa
  • 19-03-2019 08:00:00 | 10.10°C | Noroeste |13.00 km/h | 86.00% | 1021.80 hPa
  • 19-03-2019 07:00:00 | 10.70°C | Noroeste |29.00 km/h | 83.00% | 1021.40 hPa
  • 19-03-2019 06:00:00 | 10.80°C | Noroeste |22.00 km/h | 79.00% | 1021.40 hPa
  • 19-03-2019 05:00:00 | 10.70°C | Noroeste |21.00 km/h | 80.00% | 1021.50 hPa
  • 19-03-2019 04:00:00 | 10.60°C | Noroeste |22.00 km/h | 80.00% | 1021.40 hPa
  • 19-03-2019 03:00:00 | 10.60°C | Noroeste |24.00 km/h | 77.00% | 1022.00 hPa
  • 19-03-2019 02:00:00 | 10.30°C | Noroeste |23.00 km/h | 79.00% | 1022.40 hPa
  • 19-03-2019 01:00:00 | 9.60°C | Noroeste |12.00 km/h | 82.00% | 1022.70 hPa
  • 19-03-2019 00:00:00 | 9.50°C | Noroeste |32.00 km/h | 76.00% | 1022.90 hPa
    • diseño web asturias Información sobre el estado de las mareas, altura de la marejada, temperatura del agua y otros datos de Gijón en Asturias.

      Surf Gijón